Startpagina
METAR-TAF:

METAR-TAF

Vliegvelden :

Luchthaven Kaunas

Kaunas, Litouwen

breedte: 54-54N, lengte: 023-55-12E, hoogte: 77 m

Actueel weer

Dit bericht is 11 minuten geleden gemaakt, om 11:50 UTC
Wind 9 kt uit het westen, variërend tussen het westzuidwesten en het noordnoordwesten
Temperatuur 11°C
Vochtigheid 30%
Druk 1022 hPa
Zicht 10 km of meer
geen wolken onder 1500 m en geen cumulonimbus

METAR: EYKA 101150Z 27009KT 240V330 CAVOK 11/M06 Q1022

Tijdstip: 15:01 (12:01 UTC)

Verwachting

Dit bericht is 1 uur en het 1 minuten geleden gemaakt, om 11:00 UTC
Verwachting geldig van 10 om 12 UTC tot 11 om 12 UTC
Wind 10 kt uit het noordwesten met uitschieters tot 20 kt
Zicht: 9000 m
Gebroken wolken op 4000 ft
Wijzigt naar
van 10 om 16 UTC tot 10 om 18 UTC
Wind 10 kt uit het noordwesten

TAF: EYKA 101100Z 1012/1112 32010G20KT 9000 BKN040 BECMG 1016/1018 32010KT NSC

Waarnemingen en weersverwachtingen van meer dan 4000 vliegvelden (METAR en TAF).

De beschikbare stations zijn de gele en rode punten op de kaart.

Ga met uw muis naar het station om de naam te zien.

Klik dan om waarnemingen en weersverwachtingen te zien.

kaart wijzigen: klik op de groene knoppen met een zwart kruis om in te zoomen, op de groene knop met een streepje om uit te zoomen of op de groene pijlen voor aangrenzende kaarten.


METAR-TAF: